createdAt,value
2019-02-15T00:05:40.278Z,103023.13
2019-02-15T00:08:06.027Z,103024.84
2019-02-15T00:10:31.796Z,103014.75
2019-02-15T00:12:57.560Z,103020.22
2019-02-15T00:15:23.335Z,103014.20
2019-02-15T00:20:56.281Z,103011.61
2019-02-15T00:23:22.056Z,103010.61
2019-02-15T00:25:47.827Z,103011.07
2019-02-15T00:28:13.581Z,103009.95
2019-02-15T00:30:39.366Z,103006.37
2019-02-15T00:33:05.120Z,102999.87
2019-02-15T00:35:30.889Z,103002.52
2019-02-15T00:37:56.671Z,103009.12
2019-02-15T00:40:22.446Z,103008.19
2019-02-15T00:42:48.202Z,103016.64
2019-02-15T00:48:01.503Z,103018.27
2019-02-15T00:50:44.170Z,103029.77
2019-02-15T00:53:14.787Z,103023.41
2019-02-15T00:55:58.605Z,103025.92
2019-02-15T00:58:44.260Z,103028.13
2019-02-15T01:01:17.706Z,103016.77
2019-02-15T01:03:45.368Z,103016.06
2019-02-15T01:06:13.033Z,103024.51
2019-02-15T01:08:46.221Z,103018.55
2019-02-15T01:11:16.665Z,103010.52
2019-02-15T01:13:42.422Z,103013.21
2019-02-15T01:16:08.187Z,103011.50
2019-02-15T01:18:33.957Z,103017.09
2019-02-15T01:20:59.730Z,103017.18
2019-02-15T01:23:25.469Z,103018.95
2019-02-15T01:25:53.141Z,103018.42
2019-02-15T01:28:20.805Z,103015.63
2019-02-15T01:30:48.473Z,103023.73
2019-02-15T01:33:18.669Z,103023.30
2019-02-15T01:36:02.790Z,103020.48
2019-02-15T01:38:30.440Z,103020.25
2019-02-15T01:41:00.652Z,103016.68
2019-02-15T01:43:28.323Z,103013.66
2019-02-15T01:46:01.559Z,103011.76
2019-02-15T01:48:27.329Z,103018.09
2019-02-15T01:50:53.105Z,103011.98
2019-02-15T01:53:18.853Z,103014.41
2019-02-15T01:55:44.616Z,103012.03
2019-02-15T01:58:10.400Z,103019.72
2019-02-15T02:00:36.266Z,103017.91
2019-02-15T02:03:02.024Z,103017.73
2019-02-15T02:05:27.874Z,103016.61
2019-02-15T02:07:53.662Z,103017.33
2019-02-15T02:10:19.409Z,103016.58
2019-02-15T02:12:45.198Z,103018.97
2019-02-15T02:15:11.150Z,103019.05
2019-02-15T02:17:36.933Z,103010.30
2019-02-15T02:20:05.005Z,103013.27
2019-02-15T02:22:30.784Z,103012.02
2019-02-15T02:24:56.538Z,103015.34
2019-02-15T02:27:22.300Z,103011.57
2019-02-15T02:29:48.080Z,103015.79
2019-02-15T02:32:13.847Z,103017.77
2019-02-15T02:34:39.614Z,103013.58
2019-02-15T02:37:05.426Z,103014.14
2019-02-15T02:39:31.192Z,103017.66
2019-02-15T02:41:56.949Z,103013.36
2019-02-15T02:44:22.718Z,103009.03
2019-02-15T02:46:48.470Z,103003.33
2019-02-15T02:49:14.266Z,103012.88
2019-02-15T02:51:39.990Z,103006.13
2019-02-15T02:54:05.762Z,103006.25
2019-02-15T02:56:31.550Z,103007.09
2019-02-15T02:58:57.311Z,102996.30
2019-02-15T03:01:23.289Z,102995.98
2019-02-15T03:03:49.026Z,102992.33
2019-02-15T03:06:14.799Z,102988.90
2019-02-15T03:08:40.567Z,102987.17
2019-02-15T03:11:06.319Z,102985.05
2019-02-15T03:13:32.105Z,102980.86
2019-02-15T03:15:57.872Z,102982.30
2019-02-15T03:18:23.646Z,102982.97
2019-02-15T03:20:49.399Z,102981.72
2019-02-15T03:23:15.207Z,102975.64
2019-02-15T03:25:40.957Z,102982.73
2019-02-15T03:28:06.720Z,102985.11
2019-02-15T03:30:32.480Z,102974.58
2019-02-15T03:32:58.228Z,102981.73
2019-02-15T03:35:24.002Z,102969.39
2019-02-15T03:37:54.174Z,102972.31
2019-02-15T03:40:21.839Z,102970.27
2019-02-15T03:42:47.597Z,102974.56
2019-02-15T03:45:15.270Z,102967.09
2019-02-15T03:47:41.018Z,102968.00
2019-02-15T03:50:07.205Z,102973.52
2019-02-15T03:52:32.993Z,102972.78
2019-02-15T03:54:58.760Z,102981.12
2019-02-15T03:57:24.507Z,102977.30
2019-02-15T03:59:50.279Z,102979.55
2019-02-15T04:02:16.052Z,102979.77
2019-02-15T04:04:41.800Z,102979.61
2019-02-15T04:07:07.549Z,102981.02
2019-02-15T04:09:33.341Z,102974.59
2019-02-15T04:11:59.109Z,102972.67
2019-02-15T04:14:32.499Z,102969.02
2019-02-15T04:16:52.533Z,102968.77
2019-02-15T04:19:18.290Z,102974.63
2019-02-15T04:21:44.069Z,102964.91
2019-02-15T04:24:09.833Z,102965.03
2019-02-15T04:26:35.605Z,102961.97
2019-02-15T04:29:01.363Z,102966.55
2019-02-15T04:31:27.127Z,102967.36
2019-02-15T04:33:52.878Z,102965.56
2019-02-15T04:36:18.649Z,102968.09
2019-02-15T04:38:44.433Z,102961.52
2019-02-15T04:41:10.206Z,102970.88
2019-02-15T04:43:35.955Z,102965.44
2019-02-15T04:46:01.721Z,102961.34
2019-02-15T04:48:27.472Z,102954.56
2019-02-15T04:50:53.239Z,102952.91
2019-02-15T04:53:18.990Z,102957.62
2019-02-15T04:55:44.749Z,102958.06
2019-02-15T04:58:10.503Z,102953.37
2019-02-15T05:00:36.275Z,102953.57
2019-02-15T05:03:02.025Z,102953.52
2019-02-15T05:05:27.793Z,102963.17
2019-02-15T05:07:53.548Z,102961.80
2019-02-15T05:10:19.297Z,102962.80
2019-02-15T05:12:45.080Z,102962.52
2019-02-15T05:15:10.820Z,102961.07
2019-02-15T05:17:36.584Z,102957.56
2019-02-15T05:20:03.837Z,102956.74
2019-02-15T05:22:29.602Z,102961.50
2019-02-15T05:24:55.350Z,102963.62
2019-02-15T05:27:21.114Z,102958.23
2019-02-15T05:29:46.878Z,102954.73
2019-02-15T05:32:12.634Z,102958.00
2019-02-15T05:34:38.374Z,102959.33
2019-02-15T05:37:04.161Z,102963.75
2019-02-15T05:39:29.910Z,102965.34
2019-02-15T05:41:55.668Z,102964.12
2019-02-15T05:44:21.443Z,102959.17
2019-02-15T05:46:47.216Z,102959.70
2019-02-15T05:49:12.965Z,102955.86
2019-02-15T05:51:38.733Z,102958.03
2019-02-15T05:54:04.481Z,102966.78
2019-02-15T05:56:30.244Z,102967.45
2019-02-15T05:58:55.994Z,102970.62
2019-02-15T06:01:23.284Z,102969.52
2019-02-15T06:03:49.049Z,102966.20
2019-02-15T06:06:14.810Z,102965.95
2019-02-15T06:08:40.573Z,102952.83
2019-02-15T06:11:08.123Z,102967.05
2019-02-15T06:13:34.005Z,102958.00
2019-02-15T06:15:59.754Z,102953.84
2019-02-15T06:18:25.521Z,102962.66
2019-02-15T06:20:51.275Z,102961.90
2019-02-15T06:23:17.036Z,102960.07
2019-02-15T06:25:42.786Z,102963.59
2019-02-15T06:28:10.441Z,102964.34
2019-02-15T06:30:36.209Z,102963.94
2019-02-15T06:33:01.971Z,102967.12
2019-02-15T06:35:27.745Z,102966.70
2019-02-15T06:37:53.516Z,102966.70
2019-02-15T06:40:19.280Z,102968.42
2019-02-15T06:42:45.051Z,102966.53
2019-02-15T06:45:10.799Z,102965.29
2019-02-15T06:47:36.554Z,102970.32
2019-02-15T06:50:03.126Z,102969.60
2019-02-15T06:52:28.870Z,102970.13
2019-02-15T06:54:54.630Z,102971.64
2019-02-15T06:57:20.391Z,102974.97
2019-02-15T06:59:53.913Z,102976.30
2019-02-15T07:02:27.463Z,102969.47
2019-02-15T07:05:11.508Z,102972.66
2019-02-15T07:07:37.254Z,102976.95
2019-02-15T07:10:04.818Z,102980.80
2019-02-15T07:12:30.570Z,102980.46
2019-02-15T07:14:56.338Z,102981.05
2019-02-15T07:17:22.096Z,102886.98
2019-02-15T07:19:47.857Z,102983.97
2019-02-15T07:22:13.620Z,102981.16
2019-02-15T07:24:39.388Z,102985.62
2019-02-15T07:27:05.149Z,102998.14
2019-02-15T07:29:30.904Z,102994.27
2019-02-15T07:31:56.659Z,102994.27
2019-02-15T07:34:22.421Z,102994.27
2019-02-15T07:36:48.404Z,102991.45
2019-02-15T07:39:14.170Z,102989.59
2019-02-15T07:41:39.933Z,102989.59
2019-02-15T07:44:05.715Z,102987.38
2019-02-15T07:46:31.461Z,102992.64
2019-02-15T07:48:57.218Z,102982.89
2019-02-15T07:51:22.994Z,102982.87
2019-02-15T07:53:48.740Z,102982.95
2019-02-15T07:56:14.509Z,102986.41
2019-02-15T07:58:40.261Z,102983.20
2019-02-15T08:01:06.032Z,102984.40
2019-02-15T08:03:31.798Z,102988.63
2019-02-15T08:05:57.572Z,102975.31
2019-02-15T08:08:23.324Z,102988.22
2019-02-15T08:10:49.099Z,102979.16
2019-02-15T08:13:14.845Z,102975.50
2019-02-15T08:15:40.621Z,102975.87
2019-02-15T08:18:06.377Z,102982.45
2019-02-15T08:20:32.154Z,102984.25
2019-02-15T08:22:57.898Z,102994.88
2019-02-15T08:25:23.668Z,102985.37
2019-02-15T08:27:49.427Z,102979.83
2019-02-15T08:30:15.199Z,102978.63
2019-02-15T08:32:40.955Z,102972.02
2019-02-15T08:35:08.772Z,102978.35
2019-02-15T08:37:34.551Z,102978.75
2019-02-15T08:40:00.353Z,102987.66
2019-02-15T08:42:26.068Z,102983.20
2019-02-15T08:44:51.819Z,102988.00
2019-02-15T08:47:17.579Z,102989.91
2019-02-15T08:49:43.337Z,102989.16
2019-02-15T08:52:09.147Z,102991.63
2019-02-15T08:54:34.901Z,102994.09
2019-02-15T08:57:00.652Z,102987.99
2019-02-15T08:59:26.405Z,102997.81
2019-02-15T09:02:05.755Z,102990.73
2019-02-15T09:04:31.506Z,102985.84
2019-02-15T09:06:57.274Z,102986.61
2019-02-15T09:09:23.031Z,102984.59
2019-02-15T09:11:48.798Z,102986.58
2019-02-15T09:14:14.545Z,102984.09
2019-02-15T09:16:40.312Z,102982.37
2019-02-15T09:19:06.067Z,102976.88
2019-02-15T09:21:31.829Z,102981.61
2019-02-15T09:23:57.590Z,102985.76
2019-02-15T09:26:23.369Z,102968.57
2019-02-15T09:28:51.023Z,102969.37
2019-02-15T09:31:16.785Z,102963.83
2019-02-15T09:33:42.557Z,102962.15
2019-02-15T09:36:08.306Z,102960.65
2019-02-15T09:38:34.094Z,102959.48
2019-02-15T09:40:59.845Z,102962.56
2019-02-15T09:43:25.613Z,102966.88
2019-02-15T09:45:51.366Z,102962.64
2019-02-15T09:48:17.143Z,102963.04
2019-02-15T09:50:42.894Z,102966.14
2019-02-15T09:53:08.758Z,102962.38
2019-02-15T09:55:34.452Z,102969.36
2019-02-15T09:58:00.222Z,102967.40
2019-02-15T10:00:25.992Z,102967.38
2019-02-15T10:02:51.761Z,102959.27
2019-02-15T10:05:17.525Z,102957.61
2019-02-15T10:07:43.301Z,102955.64
2019-02-15T10:10:09.057Z,102956.55
2019-02-15T10:12:34.816Z,102947.86
2019-02-15T10:15:00.582Z,102950.88
2019-02-15T10:17:26.336Z,102949.02
2019-02-15T10:19:52.106Z,102947.19
2019-02-15T10:22:17.864Z,102945.86
2019-02-15T10:24:43.650Z,102945.97
2019-02-15T10:27:09.398Z,102948.30
2019-02-15T10:29:35.158Z,102943.55
2019-02-15T10:32:01.020Z,102946.70
2019-02-15T10:34:26.773Z,102952.34
2019-02-15T10:36:52.545Z,102945.64
2019-02-15T10:39:18.317Z,102946.92
2019-02-15T10:41:44.074Z,102946.50
2019-02-15T10:44:09.845Z,102944.58
2019-02-15T10:46:37.859Z,102940.78
2019-02-15T10:49:03.290Z,102931.71
2019-02-15T10:51:29.061Z,102911.47
2019-02-15T10:53:54.815Z,102927.67
2019-02-15T10:56:20.574Z,102936.46
2019-02-15T10:58:46.341Z,102929.83
2019-02-15T11:01:12.101Z,102928.38
2019-02-15T11:03:37.854Z,102917.44
2019-02-15T11:06:03.619Z,102919.00
2019-02-15T11:08:29.367Z,102924.62
2019-02-15T11:10:55.157Z,102920.12
2019-02-15T11:13:20.877Z,102920.97
2019-02-15T11:15:46.637Z,102921.02
2019-02-15T11:18:12.384Z,102912.25
2019-02-15T11:20:38.153Z,102917.50
2019-02-15T11:23:04.101Z,102914.73
2019-02-15T11:25:29.937Z,102910.22
2019-02-15T11:27:55.738Z,102908.22
2019-02-15T11:30:21.546Z,102895.35
2019-02-15T11:32:47.323Z,102892.41
2019-02-15T11:35:13.089Z,102894.21
2019-02-15T11:37:38.878Z,102897.73
2019-02-15T11:40:08.472Z,102895.83
2019-02-15T11:42:36.200Z,102891.45
2019-02-15T11:45:04.159Z,102881.39
2019-02-15T11:47:31.014Z,102879.77
2019-02-15T11:49:56.850Z,102880.68
2019-02-15T11:52:22.641Z,102870.16
2019-02-15T11:54:48.421Z,102881.20
2019-02-15T11:57:14.223Z,102879.36
2019-02-15T11:59:40.010Z,102876.66
2019-02-15T12:02:06.672Z,102872.93
2019-02-15T12:04:32.487Z,102868.03
2019-02-15T12:06:58.276Z,102856.32
2019-02-15T12:09:24.039Z,102858.09
2019-02-15T12:11:49.867Z,102855.38
2019-02-15T12:14:15.648Z,102852.52
2019-02-15T12:16:41.517Z,102843.58
2019-02-15T12:19:07.294Z,102842.38
2019-02-15T12:21:33.086Z,102845.09
2019-02-15T12:23:58.842Z,102838.85
2019-02-15T12:26:24.652Z,102840.08
2019-02-15T12:28:50.446Z,102838.38
2019-02-15T12:31:16.226Z,102828.08
2019-02-15T12:33:42.030Z,102834.41
2019-02-15T12:36:07.882Z,102828.98
2019-02-15T12:38:33.741Z,102828.81
2019-02-15T12:40:59.545Z,102831.16
2019-02-15T12:43:25.383Z,102831.34
2019-02-15T12:45:51.186Z,102828.47
2019-02-15T12:48:17.002Z,102827.80
2019-02-15T12:50:43.047Z,102829.38
2019-02-15T12:53:08.873Z,102820.53
2019-02-15T12:55:34.700Z,102807.30
2019-02-15T12:58:00.503Z,102809.17
2019-02-15T13:00:26.290Z,102810.69
2019-02-15T13:02:52.091Z,102802.56
2019-02-15T13:05:17.958Z,102804.73
2019-02-15T13:07:43.770Z,102805.75
2019-02-15T13:10:12.362Z,102798.12
2019-02-15T13:12:38.122Z,102798.12
2019-02-15T13:15:08.616Z,102787.42
2019-02-15T13:17:34.432Z,102781.16
2019-02-15T13:20:00.239Z,102776.69
2019-02-15T13:22:26.063Z,102778.76
2019-02-15T13:24:51.858Z,102778.08
2019-02-15T13:27:17.629Z,102769.59
2019-02-15T13:29:43.452Z,102769.93
2019-02-15T13:32:09.210Z,102765.82
2019-02-15T13:34:35.068Z,102766.81
2019-02-15T13:37:00.840Z,102755.59
2019-02-15T13:39:26.670Z,102762.95
2019-02-15T13:41:52.454Z,102762.30
2019-02-15T13:44:18.273Z,102757.56
2019-02-15T13:46:45.958Z,102758.61
2019-02-15T13:49:13.069Z,102750.61
2019-02-15T13:51:38.897Z,102748.91
2019-02-15T13:54:04.693Z,102747.05
2019-02-15T13:56:30.463Z,102740.08
2019-02-15T13:58:56.233Z,102741.44
2019-02-15T14:01:22.227Z,102736.52
2019-02-15T14:03:48.082Z,102738.71
2019-02-15T14:06:13.933Z,102730.92
2019-02-15T14:08:39.697Z,102724.81
2019-02-15T14:11:05.546Z,102726.51
2019-02-15T14:13:31.332Z,102716.69
2019-02-15T14:15:57.109Z,102719.88
2019-02-15T14:18:22.887Z,102711.25
2019-02-15T14:20:48.715Z,102712.92
2019-02-15T14:23:14.553Z,102710.58
2019-02-15T14:25:40.344Z,102707.52
2019-02-15T14:28:06.346Z,102702.59
2019-02-15T14:30:32.136Z,102702.41
2019-02-15T14:32:57.882Z,102701.74
2019-02-15T14:35:23.753Z,102696.31
2019-02-15T14:37:49.551Z,102691.57
2019-02-15T14:40:15.514Z,102688.17
2019-02-15T14:42:41.260Z,102689.71
2019-02-15T14:45:08.829Z,102690.57
2019-02-15T14:47:34.584Z,102681.05
2019-02-15T14:50:00.506Z,102675.13
2019-02-15T14:52:26.220Z,102678.53
2019-02-15T14:54:51.971Z,102676.31
2019-02-15T14:57:17.740Z,102670.38
2019-02-15T14:59:43.484Z,102670.22
2019-02-15T15:02:09.248Z,102660.72
2019-02-15T15:04:35.006Z,102664.95
2019-02-15T15:07:00.774Z,102650.88
2019-02-15T15:09:26.519Z,102649.86
2019-02-15T15:11:52.905Z,102643.59
2019-02-15T15:14:18.733Z,102643.42
2019-02-15T15:16:44.497Z,102647.13
2019-02-15T15:19:10.253Z,102641.70
2019-02-15T15:21:36.029Z,102637.27
2019-02-15T15:24:01.790Z,102641.66
2019-02-15T15:26:27.553Z,102633.86
2019-02-15T15:28:53.300Z,102636.55
2019-02-15T15:31:19.060Z,102632.23
2019-02-15T15:33:44.803Z,102627.12
2019-02-15T15:36:10.590Z,102623.19
2019-02-15T15:38:36.367Z,102625.48
2019-02-15T15:41:02.139Z,102608.84
2019-02-15T15:43:27.889Z,102613.56
2019-02-15T15:45:53.654Z,102604.61
2019-02-15T15:48:22.661Z,102605.82
2019-02-15T15:50:47.073Z,102593.30
2019-02-15T15:53:12.838Z,102600.03
2019-02-15T15:55:38.590Z,102598.79
2019-02-15T15:58:04.370Z,102590.77
2019-02-15T16:00:38.674Z,102589.22
2019-02-15T16:02:57.800Z,102594.38
2019-02-15T16:05:23.547Z,102588.71
2019-02-15T16:07:49.342Z,102590.89
2019-02-15T16:10:15.117Z,102586.61
2019-02-15T16:12:40.889Z,102585.95
2019-02-15T16:15:08.923Z,102589.24
2019-02-15T16:17:34.713Z,102584.91
2019-02-15T16:20:01.193Z,102590.39
2019-02-15T16:22:26.970Z,102584.23
2019-02-15T16:24:52.730Z,102589.22
2019-02-15T16:27:18.492Z,102588.09
2019-02-15T16:29:44.242Z,102598.12
2019-02-15T16:32:10.011Z,102589.76
2019-02-15T16:34:35.751Z,102586.56
2019-02-15T16:37:01.568Z,102587.77
2019-02-15T16:39:27.351Z,102587.99
2019-02-15T16:41:53.159Z,102581.41
2019-02-15T16:44:18.908Z,102586.39
2019-02-15T16:46:44.662Z,102588.70
2019-02-15T16:49:10.456Z,102577.88
2019-02-15T16:51:36.217Z,102579.94
2019-02-15T16:54:03.424Z,102582.30
2019-02-15T16:56:29.205Z,102583.97
2019-02-15T16:58:54.951Z,102583.97
2019-02-15T17:01:20.829Z,102583.97
2019-02-15T17:03:46.597Z,102574.53
2019-02-15T17:06:12.347Z,102576.12
2019-02-15T17:08:38.109Z,102576.39
2019-02-15T17:11:03.912Z,102571.76
2019-02-15T17:13:29.966Z,102572.31
2019-02-15T17:15:55.746Z,102567.56
2019-02-15T17:18:21.513Z,102567.80
2019-02-15T17:20:47.260Z,102559.09
2019-02-15T17:23:13.025Z,102557.94
2019-02-15T17:25:38.777Z,102555.59
2019-02-15T17:28:04.540Z,102553.85
2019-02-15T17:30:30.306Z,102549.02
2019-02-15T17:32:56.093Z,102544.11
2019-02-15T17:35:21.852Z,102543.55
2019-02-15T17:37:47.629Z,102542.28
2019-02-15T17:40:14.798Z,102540.94
2019-02-15T17:42:40.559Z,102537.68
2019-02-15T17:45:08.431Z,102537.68
2019-02-15T17:47:34.186Z,102538.09
2019-02-15T17:49:59.955Z,102529.56
2019-02-15T17:52:25.714Z,102528.25
2019-02-15T17:54:51.488Z,102534.88
2019-02-15T17:57:17.257Z,102531.89
2019-02-15T17:59:43.033Z,102528.66
2019-02-15T18:02:09.184Z,102530.67
2019-02-15T18:04:34.952Z,102526.33
2019-02-15T18:07:00.700Z,102524.05
2019-02-15T18:09:26.459Z,102520.69
2019-02-15T18:11:52.209Z,102520.52
2019-02-15T18:14:17.982Z,102518.14
2019-02-15T18:16:43.778Z,102510.78
2019-02-15T18:19:10.430Z,102514.91
2019-02-15T18:21:36.386Z,102509.58
2019-02-15T18:24:02.106Z,102507.73
2019-02-15T18:26:27.909Z,102503.04
2019-02-15T18:28:55.053Z,102505.06
2019-02-15T18:31:20.821Z,102494.37
2019-02-15T18:33:48.020Z,102490.75
2019-02-15T18:36:15.113Z,102492.76
2019-02-15T18:38:40.896Z,102494.26
2019-02-15T18:41:13.334Z,102491.57
2019-02-15T18:43:34.288Z,102487.69
2019-02-15T18:46:00.053Z,102486.92
2019-02-15T18:48:25.815Z,102483.39
2019-02-15T18:50:51.578Z,102483.15
2019-02-15T18:53:17.353Z,102483.89
2019-02-15T18:55:43.117Z,102482.88
2019-02-15T18:58:08.869Z,102479.03
2019-02-15T19:00:34.633Z,102478.13
2019-02-15T19:03:00.394Z,102475.89
2019-02-15T19:05:26.162Z,102476.28
2019-02-15T19:07:51.922Z,102472.08
2019-02-15T19:10:21.979Z,102472.26
2019-02-15T19:12:47.729Z,102467.89
2019-02-15T19:15:14.780Z,102469.35
2019-02-15T19:17:40.543Z,102465.58
2019-02-15T19:20:08.915Z,102464.25
2019-02-15T19:22:34.666Z,102462.81
2019-02-15T19:25:00.431Z,102465.61
2019-02-15T19:27:26.200Z,102462.46
2019-02-15T19:29:51.955Z,102455.14
2019-02-15T19:32:17.832Z,102454.43
2019-02-15T19:34:43.593Z,102457.13
2019-02-15T19:37:09.399Z,102460.55
2019-02-15T19:39:35.163Z,102461.52
2019-02-15T19:42:01.422Z,102456.39
2019-02-15T19:44:27.171Z,102461.02
2019-02-15T19:46:52.938Z,102453.25
2019-02-15T19:49:18.705Z,102452.14
2019-02-15T19:51:44.475Z,102445.58
2019-02-15T19:54:10.235Z,102449.47
2019-02-15T19:56:36.010Z,102446.79
2019-02-15T19:59:01.768Z,102443.61
2019-02-15T20:01:27.517Z,102444.33
2019-02-15T20:03:53.293Z,102450.42
2019-02-15T20:06:19.340Z,102447.73
2019-02-15T20:08:45.112Z,102448.34
2019-02-15T20:11:11.037Z,102443.72
2019-02-15T20:13:36.798Z,102445.52
2019-02-15T20:16:02.552Z,102439.79
2019-02-15T20:18:28.325Z,102444.02
2019-02-15T20:20:54.071Z,102441.70
2019-02-15T20:23:19.837Z,102444.88
2019-02-15T20:25:45.591Z,102448.97
2019-02-15T20:28:14.202Z,102443.73
2019-02-15T20:30:39.000Z,102442.95
2019-02-15T20:33:04.762Z,102441.45
2019-02-15T20:35:30.524Z,102434.74
2019-02-15T20:37:56.293Z,102431.58
2019-02-15T20:40:22.071Z,102425.48
2019-02-15T20:42:48.087Z,102424.40
2019-02-15T20:45:16.708Z,102417.59
2019-02-15T20:47:42.469Z,102415.27
2019-02-15T20:50:09.823Z,102419.17
2019-02-15T20:52:35.587Z,102415.46
2019-02-15T20:55:01.352Z,102410.22
2019-02-15T20:57:27.088Z,102415.31
2019-02-15T20:59:52.858Z,102410.41
2019-02-15T21:02:19.094Z,102407.36
2019-02-15T21:04:45.472Z,102397.61
2019-02-15T21:07:11.621Z,102398.82
2019-02-15T21:09:37.613Z,102396.37
2019-02-15T21:12:03.410Z,102392.55
2019-02-15T21:14:30.985Z,102394.06
2019-02-15T21:16:56.741Z,102394.66
2019-02-15T21:19:22.520Z,102387.14
2019-02-15T21:21:48.267Z,102386.14
2019-02-15T21:24:14.260Z,102378.47
2019-02-15T21:26:40.481Z,102383.69
2019-02-15T21:29:06.534Z,102377.39
2019-02-15T21:31:32.584Z,102373.22
2019-02-15T21:33:58.458Z,102373.44
2019-02-15T21:36:24.400Z,102373.14
2019-02-15T21:38:50.394Z,102367.19
2019-02-15T21:41:16.157Z,102363.05
2019-02-15T21:43:41.923Z,102361.59
2019-02-15T21:46:09.238Z,102356.94
2019-02-15T21:48:35.198Z,102352.55
2019-02-15T21:51:01.207Z,102350.80
2019-02-15T21:53:27.361Z,102343.72
2019-02-15T21:55:53.298Z,102347.26
2019-02-15T21:58:19.217Z,102339.63
2019-02-15T22:00:44.967Z,102342.30
2019-02-15T22:03:10.713Z,102338.33
2019-02-15T22:05:36.474Z,102335.86
2019-02-15T22:08:02.514Z,102329.44
2019-02-15T22:10:28.578Z,102333.72
2019-02-15T22:12:54.536Z,102330.12
2019-02-15T22:15:20.716Z,102334.00
2019-02-15T22:17:46.465Z,102333.91
2019-02-15T22:20:13.328Z,102337.84
2019-02-15T22:22:39.353Z,102333.83
2019-02-15T22:25:05.918Z,102333.70
2019-02-15T22:27:31.668Z,102329.38
2019-02-15T22:29:57.541Z,102332.50
2019-02-15T22:32:23.454Z,102326.83
2019-02-15T22:34:49.535Z,102327.83
2019-02-15T22:37:16.920Z,102327.83
2019-02-15T22:39:42.930Z,102327.87
2019-02-15T22:42:08.820Z,102328.13
2019-02-15T22:44:35.095Z,102327.04
2019-02-15T22:47:01.740Z,102320.48
2019-02-15T22:49:27.507Z,102322.89
2019-02-15T22:51:53.576Z,102314.20
2019-02-15T22:54:19.450Z,102313.08
2019-02-15T22:56:46.023Z,102309.45
2019-02-15T22:59:11.974Z,102307.16
2019-02-15T23:01:37.824Z,102302.19
2019-02-15T23:04:03.973Z,102300.23
2019-02-15T23:06:29.892Z,102299.17
2019-02-15T23:08:55.643Z,102300.56
2019-02-15T23:11:21.406Z,102298.02
2019-02-15T23:13:47.157Z,102296.77
2019-02-15T23:16:12.920Z,102293.56
2019-02-15T23:18:38.672Z,102293.52
2019-02-15T23:21:04.433Z,102294.69
2019-02-15T23:23:30.303Z,102293.31
2019-02-15T23:25:56.090Z,102295.09
2019-02-15T23:28:21.967Z,102287.77
2019-02-15T23:30:47.727Z,102282.81
2019-02-15T23:33:13.486Z,102282.14
2019-02-15T23:35:39.251Z,102281.35
2019-02-15T23:38:04.997Z,102279.34
2019-02-15T23:40:30.786Z,102277.05
2019-02-15T23:42:56.531Z,102281.64
2019-02-15T23:45:22.343Z,102280.86
2019-02-15T23:47:48.262Z,102285.94
2019-02-15T23:50:14.031Z,102289.36
2019-02-15T23:52:39.740Z,102281.98
2019-02-15T23:55:05.504Z,102281.59
2019-02-15T23:57:31.247Z,102279.77
2019-02-15T23:59:57.000Z,102282.41
